In Rescue
 
Open Full Screen Window  High Contrast Mode
Wind Gusting 00 knots
08
November 14, 2019 1:16 PM CST
Weather Information
Wind Direction
  210 °
Wind Speed
  08 kt (9 mph)
Wind Gust
  00 kt (0 mph)
Altimeter
30.09 in
Visibility
10 SM
Temperature
-03° C
27° F
Dewpoint
-10° C
14° F
Humidity
59%
1hr Rain Fall
00.00 in.
24hr Rain Fall
00.00 in.
Sky Condition
Overcast @ 6,000 ft
VFR

METAR KSAZ 141916Z AUTO 21008KT 10SM OVC060 M03/M10 A3009 RMK AO2

FAA Disclaimer: The data displayed is for advisory purposes only and is not to be used for flight planning or operations.